< Typhoon 199409 1994 Season Typhoon 199411 >
Typhoon 199410 (AMY)
General InformationTrack Information on Google MapsDetailed Wind InformationList of All Images || Disaster Info.ResourceGoogle EarthGE AnimationAtom FeedGeoJSON
Detalied Best Track (Time Zone = UTC)
Year Month Day Hour Lat. Long. Pressure (hPa) Wind (kt) Class Image Chart
1994 7 25 00 22.0 107.0 998 0 2 Image Chart
1994 7 25 06 22.0 107.0 996 0 2 Image Chart
1994 7 25 12 22.0 107.0 996 0 2 Image Chart
1994 7 25 18 22.0 107.0 998 0 2 Image Chart
1994 7 26 00 22.0 107.0 998 0 2 Image Chart
1994 7 26 06 22.0 107.0 996 0 2 Image Chart
1994 7 26 12 21.0 107.0 996 0 2 Image Chart
1994 7 26 18 21.0 107.5 998 0 2 Image Chart
1994 7 27 00 21.0 108.0 998 0 2 Image Chart
1994 7 27 06 20.5 108.0 998 0 2 Image Chart
1994 7 27 12 20.5 108.5 996 0 2 Image Chart
1994 7 27 18 21.0 109.0 996 0 2 Image Chart
1994 7 28 00 21.0 109.2 996 0 2 Image Chart
1994 7 28 06 20.8 109.1 996 0 2 Image Chart
1994 7 28 12 20.6 109.0 996 0 2 Image Chart
1994 7 28 18 20.4 108.7 996 0 2 Image Chart
1994 7 29 00 20.0 108.3 994 35 3 Image Chart
1994 7 29 06 18.9 108.2 985 45 3 Image Chart
1994 7 29 12 18.8 108.8 990 40 3 Image Chart
1994 7 29 18 18.8 109.0 990 40 3 Image Chart
1994 7 30 00 19.3 107.8 990 35 3 Image Chart
1994 7 30 06 19.6 107.4 992 35 3 Image Chart
1994 7 30 12 20.0 106.8 992 35 3 Image Chart
1994 7 30 18 19.5 105.0 992 35 3 Image Chart
1994 7 31 00 19.0 103.5 996 0 2 Image Chart
1994 7 31 06 19.0 102.5 998 0 2 Image Chart
1994 7 31 12 19.0 101.0 998 0 2 Image Chart
1994 7 31 18 19.0 100.0 998 0 2 Image Chart
1994 8 1 00 19.0 99.0 1000 0 2 Image Chart
1994 8 1 06 19.0 98.4 1000 0 2 Image Chart
Japan Meteorological Agency Best Track Data | Correction Date : 1995-01-30
< Typhoon 199409 1994 Season Typhoon 199411 >

Help